Time;durP1;ratioP1;P1;durP2;ratioP2;P2;SDS_P1;SDS_P2;PMS_P1;PMS_P2;Temp;Humidity;BMP_temperature;BMP_pressure;BME280_temperature;BME280_humidity;BME280_pressure;Samples;Min_cycle;Max_cycle;Signal;HPM_P1;HPM_P2
2023/04/13 00:02:14;;;;;;;1999.90;999.90;;;;;;;11.89;60.49;96759.91;5132526;27;20027;-74
2023/04/13 00:04:41;;;;;;;1999.90;999.90;;;;;;;11.84;60.62;96757.38;5131960;27;20088;-74
2023/04/13 00:07:15;;;;;;;1999.90;999.90;;;;;;;11.81;60.70;96754.16;5131644;27;20080;-74
2023/04/13 00:09:41;;;;;;;1999.90;999.90;;;;;;;11.80;60.40;96743.53;5131870;27;20133;-75
2023/04/13 00:12:06;;;;;;;1999.90;999.90;;;;;;;11.85;59.84;96750.75;5131874;27;20050;-75
2023/04/13 00:14:32;;;;;;;1999.90;999.90;;;;;;;11.88;59.53;96745.41;5132408;27;20034;-73
2023/04/13 00:16:59;;;;;;;1999.90;999.90;;;;;;;11.82;59.63;96735.78;5113599;28;20126;-74
2023/04/13 00:19:24;;;;;;;1999.90;999.90;;;;;;;11.85;59.03;96745.25;5131499;27;20031;-74
2023/04/13 00:21:52;;;;;;;1999.90;999.90;;;;;;;11.78;59.64;96746.59;5131994;28;20502;-76
2023/04/13 00:24:18;;;;;;;1999.90;999.90;;;;;;;11.79;59.49;96741.94;5132080;28;20007;-74
2023/04/13 00:26:44;;;;;;;1999.90;999.90;;;;;;;11.78;59.74;96741.13;5131891;28;20356;-74
2023/04/13 00:29:10;;;;;;;1999.90;999.90;;;;;;;11.85;59.63;96737.84;5132108;28;20023;-75
2023/04/13 00:31:36;;;;;;;1999.90;999.90;;;;;;;11.87;59.88;96735.59;5132200;27;20379;-75
2023/04/13 00:34:02;;;;;;;1999.90;999.90;;;;;;;11.84;59.93;96738.19;5132167;27;20094;-75
2023/04/13 00:36:28;;;;;;;1999.90;999.90;;;;;;;11.78;60.57;96729.34;5132154;28;20102;-74
2023/04/13 00:38:56;;;;;;;1999.90;999.90;;;;;;;11.74;61.19;96723.75;5133019;28;20051;-75
2023/04/13 00:41:23;;;;;;;1999.90;999.90;;;;;;;11.76;61.46;96717.94;5133446;27;20045;-75
2023/04/13 00:43:48;;;;;;;1999.90;999.90;;;;;;;11.72;61.99;96719.72;5135746;27;20054;-75
2023/04/13 00:46:15;;;;;;;1999.90;999.90;;;;;;;11.72;62.46;96715.06;5138045;27;20476;-75
2023/04/13 00:48:40;;;;;;;1999.90;999.90;;;;;;;11.76;62.93;96712.47;5137013;27;20034;-74
2023/04/13 00:51:06;;;;;;;1999.90;999.90;;;;;;;11.69;63.67;96699.25;5135550;27;20031;-74
2023/04/13 00:53:32;;;;;;;1999.90;999.90;;;;;;;11.79;63.76;96712.59;5135502;27;20027;-76
2023/04/13 00:55:58;;;;;;;1999.90;999.90;;;;;;;11.82;64.57;96714.66;5135293;27;20027;-74
2023/04/13 00:58:26;;;;;;;1999.90;999.90;;;;;;;11.73;65.99;96711.19;5135574;27;20027;-75
2023/04/13 01:00:51;;;;;;;1999.90;999.90;;;;;;;11.82;66.83;96700.97;5135383;27;20035;-76
2023/04/13 01:03:17;;;;;;;1999.90;999.90;;;;;;;11.78;66.60;96705.50;5135496;27;20048;-75
2023/04/13 01:05:52;;;;;;;1999.90;999.90;;;;;;;11.75;66.22;96695.22;5135424;27;20011;-75
2023/04/13 01:08:34;;;;;;;1999.90;999.90;;;;;;;11.76;66.52;96691.34;5135067;27;20043;-76
2023/04/13 01:11:12;;;;;;;1999.90;999.90;;;;;;;11.78;67.03;96697.28;5135250;27;20520;-75
2023/04/13 01:14:01;;;;;;;1999.90;999.90;;;;;;;11.70;67.86;96686.41;5135373;27;20391;-75
2023/04/13 01:16:34;;;;;;;1999.90;999.90;;;;;;;11.70;68.37;96689.94;5135317;27;20042;-75
2023/04/13 01:19:01;;;;;;;1999.90;999.90;;;;;;;11.63;69.19;96672.41;5135728;27;20027;-74
2023/04/13 01:21:29;;;;;;;1999.90;999.90;;;;;;;11.59;69.86;96671.47;5136298;27;20034;-75
2023/04/13 01:24:22;;;;;;;1999.90;999.90;;;;;;;11.69;69.54;96677.34;5136154;27;20049;-74
2023/04/13 01:27:11;;;;;;;1999.90;999.90;;;;;;;11.68;70.24;96667.50;5135021;27;20091;-75
2023/04/13 01:29:38;;;;;;;1999.90;999.90;;;;;;;11.65;70.89;96665.44;5134704;27;20109;-75
2023/04/13 01:32:05;;;;;;;1999.90;999.90;;;;;;;11.69;70.48;96654.63;5134750;27;20030;-74
2023/04/13 01:34:31;;;;;;;1999.90;999.90;;;;;;;11.64;71.62;96650.16;5134348;27;20023;-75
2023/04/13 01:36:57;;;;;;;1999.90;999.90;;;;;;;11.66;72.00;96653.34;5134550;27;20031;-75
2023/04/13 01:39:25;;;;;;;1999.90;999.90;;;;;;;11.66;72.74;96647.06;5134617;27;20043;-75
2023/04/13 01:41:51;;;;;;;1999.90;999.90;;;;;;;11.70;73.69;96643.38;5134949;27;20379;-77
2023/04/13 01:44:16;;;;;;;1999.90;999.90;;;;;;;11.59;75.37;96650.34;5135583;27;20027;-75
2023/04/13 01:46:45;;;;;;;1999.90;999.90;;;;;;;11.48;76.67;96649.16;5135896;27;20388;-75
2023/04/13 01:49:15;;;;;;;1999.90;999.90;;;;;;;11.50;76.62;96646.88;5137466;27;20049;-75
2023/04/13 01:51:44;;;;;;;1999.90;999.90;;;;;;;11.57;77.33;96651.81;5137597;27;20407;-75
2023/04/13 01:54:19;;;;;;;1999.90;999.90;;;;;;;11.54;77.29;96647.81;5136517;27;20030;-74
2023/04/13 01:56:44;;;;;;;1999.90;999.90;;;;;;;11.48;77.50;96649.16;5133652;27;20467;-74
2023/04/13 01:59:10;;;;;;;1999.90;999.90;;;;;;;11.46;77.88;96642.41;5134059;27;20038;-74
2023/04/13 02:01:39;;;;;;;1999.90;999.90;;;;;;;11.51;78.03;96645.75;5134148;27;20494;-74
2023/04/13 02:04:06;;;;;;;1999.90;999.90;;;;;;;11.46;78.03;96651.44;5127519;27;20046;-74
2023/04/13 02:06:32;;;;;;;1999.90;999.90;;;;;;;11.42;78.55;96642.28;5117561;27;20024;-76
2023/04/13 02:08:58;;;;;;;1999.90;999.90;;;;;;;11.52;78.52;96638.34;5114981;27;20070;-74
2023/04/13 02:11:24;;;;;;;1999.90;999.90;;;;;;;11.56;78.04;96650.25;5133631;27;20019;-74
2023/04/13 02:13:50;;;;;;;1999.90;999.90;;;;;;;11.54;77.86;96647.81;5115332;27;20035;-75
2023/04/13 02:16:16;;;;;;;1999.90;999.90;;;;;;;11.46;78.95;96647.88;5133823;27;20898;-75
2023/04/13 02:18:41;;;;;;;1999.90;999.90;;;;;;;11.53;79.45;96651.69;5133533;27;20027;-75
2023/04/13 02:21:10;;;;;;;1999.90;999.90;;;;;;;11.50;81.04;96646.88;5147145;27;20050;-75
2023/04/13 02:23:38;;;;;;;1999.90;999.90;;;;;;;11.53;80.03;96642.66;5153360;27;20080;-74
2023/04/13 02:26:06;;;;;;;1999.90;999.90;;;;;;;11.56;81.00;96651.00;5154134;27;20479;-74
2023/04/13 02:28:32;;;;;;;1999.90;999.90;;;;;;;11.47;81.49;96635.78;5154158;27;20533;-74
2023/04/13 02:31:01;;;;;;;1999.90;999.90;;;;;;;11.47;82.16;96641.25;5154748;27;20038;-74
2023/04/13 02:33:30;;;;;;;1999.90;999.90;;;;;;;11.50;82.00;96641.41;5136425;27;20025;-75
2023/04/13 02:35:56;;;;;;;1999.90;999.90;;;;;;;11.50;82.61;96641.41;5155184;27;20083;-74
2023/04/13 02:38:22;;;;;;;1999.90;999.90;;;;;;;11.48;82.14;96643.69;5154719;27;20041;-74
2023/04/13 02:40:52;;;;;;;1999.90;999.90;;;;;;;11.46;80.84;96629.53;5153636;27;20034;-76
2023/04/13 02:43:18;;;;;;;1999.90;999.90;;;;;;;11.49;81.84;96633.53;5135811;27;20308;-74
2023/04/13 02:45:43;;;;;;;1999.90;999.90;;;;;;;11.37;81.87;96636.97;5154756;27;20031;-74
2023/04/13 02:48:09;;;;;;;1999.90;999.90;;;;;;;11.21;82.52;96633.25;5154718;27;20031;-74
2023/04/13 02:50:35;;;;;;;1999.90;999.90;;;;;;;11.17;84.96;96641.31;5158260;27;20019;-75
2023/04/13 02:53:00;;;;;;;1999.90;999.90;;;;;;;11.26;84.92;96639.31;5155247;27;20531;-74
2023/04/13 02:55:26;;;;;;;1999.90;999.90;;;;;;;11.17;86.13;96643.25;5153950;27;20037;-73
2023/04/13 02:57:52;;;;;;;1999.90;999.90;;;;;;;11.15;90.06;96640.81;5153896;27;20023;-74
2023/04/13 03:00:18;;;;;;;1999.90;999.90;;;;;;;11.16;93.45;96644.38;5154087;27;20030;-73
2023/04/13 03:02:44;;;;;;;1999.90;999.90;;;;;;;11.15;98.90;96648.25;5154335;27;20607;-74
2023/04/13 03:05:09;;;;;;;1999.90;999.90;;;;;;;11.06;100.00;96647.47;5153984;27;20030;-75
2023/04/13 03:07:35;;;;;;;1999.90;999.90;;;;;;;10.99;100.00;96652.69;5153778;27;20539;-74
2023/04/13 03:10:04;;;;;;;1999.90;999.90;;;;;;;10.87;100.00;96639.69;5153583;27;20130;-75
2023/04/13 03:12:32;;;;;;;1999.90;999.90;;;;;;;10.63;100.00;96639.47;5153663;27;20467;-75
2023/04/13 03:15:01;;;;;;;1999.90;999.90;;;;;;;10.42;100.00;96638.59;5153762;27;20014;-75
2023/04/13 03:17:27;;;;;;;1999.90;999.90;;;;;;;10.37;100.00;96642.31;5154080;27;20023;-75
2023/04/13 03:19:52;;;;;;;1999.90;999.90;;;;;;;10.38;100.00;96638.44;5153883;27;20125;-74
2023/04/13 03:22:18;;;;;;;1999.90;999.90;;;;;;;10.32;100.00;96634.28;5153982;27;20046;-75
2023/04/13 03:24:44;;;;;;;1999.90;999.90;;;;;;;10.25;100.00;96630.44;5153397;27;20023;-75
2023/04/13 03:27:09;;;;;;;1999.90;999.90;;;;;;;10.20;100.00;96636.91;5153591;27;20033;-74
2023/04/13 03:29:35;;;;;;;1999.90;999.90;;;;;;;10.12;100.00;96622.09;5153628;27;20023;-75
2023/04/13 03:32:00;;;;;;;1999.90;999.90;;;;;;;10.02;100.00;96629.84;5154152;27;20446;-75
2023/04/13 03:34:25;;;;;;;1999.90;999.90;;;;;;;9.96;100.00;96625.66;5153313;27;20091;-75
2023/04/13 03:36:51;;;;;;;1999.90;999.90;;;;;;;9.85;100.00;96617.00;5135593;27;20035;-74
2023/04/13 03:39:18;;;;;;;1999.90;999.90;;;;;;;9.91;100.00;96621.16;5153592;27;20023;-74
2023/04/13 03:41:43;;;;;;;1999.90;999.90;;;;;;;9.92;100.00;96627.44;5153988;27;20023;-74
2023/04/13 03:44:09;;;;;;;1999.90;999.90;;;;;;;9.84;100.00;96622.78;5153817;27;20034;-75
2023/04/13 03:46:38;;;;;;;1999.90;999.90;;;;;;;9.90;100.00;96633.22;5154071;27;20022;-75
2023/04/13 03:49:09;;;;;;;1999.90;999.90;;;;;;;9.82;100.00;96631.31;5153827;27;20029;-74
2023/04/13 03:51:38;;;;;;;1999.90;999.90;;;;;;;9.77;100.00;96630.66;5153639;27;20049;-76
2023/04/13 03:54:03;;;;;;;1999.90;999.90;;;;;;;9.71;100.00;96621.03;5153641;27;20379;-75
2023/04/13 03:56:29;;;;;;;1999.90;999.90;;;;;;;9.71;100.00;96621.03;5154446;27;20027;-75
2023/04/13 03:58:55;;;;;;;1999.90;999.90;;;;;;;9.69;100.00;96624.09;5155241;27;20027;-76
2023/04/13 04:01:22;;;;;;;1999.90;999.90;;;;;;;9.69;100.00;96630.34;5156991;27;20082;-75
2023/04/13 04:03:47;;;;;;;1999.90;999.90;;;;;;;9.77;100.00;96636.13;5153087;27;20029;-75
2023/04/13 04:06:13;;;;;;;1999.90;999.90;;;;;;;9.75;100.00;96638.38;5152869;27;20475;-75
2023/04/13 04:08:38;;;;;;;1999.90;999.90;;;;;;;9.72;100.00;96641.75;5152562;27;20046;-74
2023/04/13 04:11:04;;;;;;;1999.90;999.90;;;;;;;9.72;100.00;96647.19;5153010;27;20479;-74
2023/04/13 04:13:30;;;;;;;1999.90;999.90;;;;;;;9.68;100.00;96642.38;5140276;27;20023;-74
2023/04/13 04:15:55;;;;;;;1999.90;999.90;;;;;;;9.66;100.00;96630.19;5134971;27;20023;-84
2023/04/13 04:18:21;;;;;;;1999.90;999.90;;;;;;;9.64;100.00;96646.09;5133141;27;20031;-74
2023/04/13 04:20:46;;;;;;;1999.90;999.90;;;;;;;9.65;100.00;96637.56;5131413;27;20058;-74
2023/04/13 04:23:14;;;;;;;1999.90;999.90;;;;;;;9.60;100.00;96645.94;5131482;27;20031;-74
2023/04/13 04:25:39;;;;;;;1999.90;999.90;;;;;;;9.62;100.00;96654.59;5131624;28;20019;-74
2023/04/13 04:28:05;;;;;;;1999.90;999.90;;;;;;;9.60;100.00;96656.84;5134792;28;20030;-74
2023/04/13 04:30:32;;;;;;;1999.90;999.90;;;;;;;9.61;100.00;96644.81;5124633;28;20046;-75
2023/04/13 04:32:58;;;;;;;1999.90;999.90;;;;;;;9.67;100.00;96651.72;5096719;28;20032;-75
2023/04/13 04:35:32;;;;;;;1999.90;999.90;;;;;;;9.74;100.00;96655.91;5091997;28;20034;-74
2023/04/13 04:38:03;;;;;;;1999.90;999.90;;;;;;;9.66;100.00;96650.09;5115580;28;20031;-74
2023/04/13 04:40:29;;;;;;;1999.90;999.90;;;;;;;9.60;100.00;96643.19;5102355;28;20408;-74
2023/04/13 04:42:58;;;;;;;1999.90;999.90;;;;;;;9.65;100.00;96653.13;5131296;28;20104;-75
2023/04/13 04:45:26;;;;;;;1999.90;999.90;;;;;;;9.66;100.00;96649.28;5131933;27;20034;-74
2023/04/13 04:47:52;;;;;;;1999.90;999.90;;;;;;;9.67;100.00;96649.00;5126003;28;20055;-74
2023/04/13 04:50:17;;;;;;;1999.90;999.90;;;;;;;9.62;100.00;96646.41;5110619;28;20027;-74
2023/04/13 04:52:43;;;;;;;1999.90;999.90;;;;;;;9.65;100.00;96655.88;5111040;28;20016;-75
2023/04/13 04:55:09;;;;;;;1999.90;999.90;;;;;;;9.58;100.00;96653.66;5111013;28;20088;-76
2023/04/13 04:57:35;;;;;;;1999.90;999.90;;;;;;;9.63;100.00;96650.75;5126993;28;20425;-75
2023/04/13 05:00:01;;;;;;;1999.90;999.90;;;;;;;9.60;100.00;96664.22;5132329;27;20471;-77
2023/04/13 05:02:27;;;;;;;1999.90;999.90;;;;;;;9.57;100.00;96653.97;5132263;28;20023;-75
2023/04/13 05:04:54;;;;;;;1999.90;999.90;;;;;;;9.58;100.00;96652.84;5131413;27;20027;-74
2023/04/13 05:07:20;;;;;;;1999.90;999.90;;;;;;;9.52;100.00;96651.41;5130407;28;20023;-75
2023/04/13 05:09:45;;;;;;;1999.90;999.90;;;;;;;9.51;100.00;96663.44;5130137;28;20050;-74
2023/04/13 05:12:11;;;;;;;1999.90;999.90;;;;;;;9.49;100.00;96665.69;5128873;27;20031;-76
2023/04/13 05:14:37;;;;;;;1999.90;999.90;;;;;;;9.41;100.00;96661.00;5130671;27;20019;-75
2023/04/13 05:17:02;;;;;;;1999.90;999.90;;;;;;;9.43;100.00;96656.81;5131742;28;20011;-75
2023/04/13 05:19:28;;;;;;;1999.90;999.90;;;;;;;9.49;100.00;96661.00;5132240;28;20031;-73
2023/04/13 05:21:53;;;;;;;1999.90;999.90;;;;;;;9.50;100.00;96654.44;5130483;28;20034;-75
2023/04/13 05:24:19;;;;;;;1999.90;999.90;;;;;;;9.40;100.00;96651.19;5129955;28;20028;-75
2023/04/13 05:26:45;;;;;;;1999.90;999.90;;;;;;;9.39;100.00;96661.34;5131034;27;20030;-75
2023/04/13 05:29:10;;;;;;;1999.90;999.90;;;;;;;9.36;100.00;96645.59;5129320;28;20031;-74
2023/04/13 05:31:36;;;;;;;1999.90;999.90;;;;;;;9.34;100.00;96647.03;5131649;27;20020;-75
2023/04/13 05:34:02;;;;;;;1999.90;999.90;;;;;;;9.29;100.00;96652.66;5133805;27;20351;-74
2023/04/13 05:36:30;;;;;;;1999.90;999.90;;;;;;;9.26;100.00;96650.56;5132855;27;20031;-75
2023/04/13 05:38:56;;;;;;;1999.90;999.90;;;;;;;9.24;100.00;96653.59;5133753;27;20027;-78
2023/04/13 05:41:21;;;;;;;1999.90;999.90;;;;;;;9.25;100.00;96654.41;5137015;27;20372;-77
2023/04/13 05:43:48;;;;;;;1999.90;999.90;;;;;;;9.27;100.00;96652.94;5122133;27;20080;-82
2023/04/13 05:46:14;;;;;;;1999.90;999.90;;;;;;;9.27;100.00;96660.34;5137485;27;20027;-76
2023/04/13 05:48:42;;;;;;;1999.90;999.90;;;;;;;9.25;100.00;96649.75;5135261;27;20039;-75
2023/04/13 05:51:08;;;;;;;1999.90;999.90;;;;;;;9.35;100.00;96659.56;5114589;27;20023;-74
2023/04/13 05:53:33;;;;;;;1999.90;999.90;;;;;;;9.31;100.00;96658.56;5116146;27;20023;-76
2023/04/13 05:55:59;;;;;;;1999.90;999.90;;;;;;;9.23;100.00;96649.28;5115716;27;20023;-75
2023/04/13 05:58:25;;;;;;;1999.90;999.90;;;;;;;9.37;100.00;96657.28;5135301;27;20110;-75
2023/04/13 06:00:51;;;;;;;1999.90;999.90;;;;;;;9.33;100.00;96646.25;5134524;27;20043;-80
2023/04/13 06:03:16;;;;;;;1999.90;999.90;;;;;;;9.33;100.00;96646.25;5116067;27;20031;-75
2023/04/13 06:05:42;;;;;;;1999.90;999.90;;;;;;;9.36;100.00;96642.88;5134753;27;20486;-76
2023/04/13 06:08:09;;;;;;;1999.90;999.90;;;;;;;9.27;100.00;96642.03;5136417;27;20106;-77
2023/04/13 06:10:35;;;;;;;1999.90;999.90;;;;;;;9.31;100.00;96659.38;5136712;27;20027;-77
2023/04/13 06:13:01;;;;;;;1999.90;999.90;;;;;;;9.24;100.00;96650.84;5134612;27;20023;-77
2023/04/13 06:15:26;;;;;;;1999.90;999.90;;;;;;;9.15;100.00;96644.59;5133654;27;20031;-79
2023/04/13 06:17:52;;;;;;;1999.90;999.90;;;;;;;9.10;100.00;96639.28;5112776;28;20049;-76
2023/04/13 06:20:19;;;;;;;1999.90;999.90;;;;;;;9.11;100.00;96635.47;5111776;28;20028;-80
2023/04/13 06:22:45;;;;;;;1999.90;999.90;;;;;;;9.14;100.00;96649.25;5113136;28;20157;-78
2023/04/13 06:25:11;;;;;;;1999.90;999.90;;;;;;;9.11;100.00;96644.41;5129768;27;20454;-77
2023/04/13 06:27:37;;;;;;;1999.90;999.90;;;;;;;9.13;100.00;96646.84;5113723;28;20030;-78
2023/04/13 06:30:05;;;;;;;1999.90;999.90;;;;;;;8.93;100.00;96640.06;5113412;28;20024;-79
2023/04/13 06:32:31;;;;;;;1999.90;999.90;;;;;;;9.07;100.00;96642.66;5113045;28;20029;-77
2023/04/13 06:34:57;;;;;;;1999.90;999.90;;;;;;;9.17;100.00;96636.91;5094932;28;20020;-77
2023/04/13 06:37:22;;;;;;;1999.90;999.90;;;;;;;9.11;100.00;96644.41;5113314;28;20031;-77
2023/04/13 06:39:48;;;;;;;1999.90;999.90;;;;;;;9.32;100.00;96644.63;5113271;28;20039;-77
2023/04/13 06:42:14;;;;;;;1999.90;999.90;;;;;;;9.13;100.00;96642.19;5094698;28;20031;-80
2023/04/13 06:44:40;;;;;;;1999.90;999.90;;;;;;;9.21;100.00;96637.84;5113340;28;20428;-79
2023/04/13 06:47:05;;;;;;;1999.90;999.90;;;;;;;9.30;100.00;96637.91;5113827;28;20031;-78
2023/04/13 06:49:34;;;;;;;1999.90;999.90;;;;;;;9.29;100.00;96628.91;5113291;28;20020;-76
2023/04/13 06:51:59;;;;;;;1999.90;999.90;;;;;;;9.38;100.00;96632.44;5113110;28;20031;-76
2023/04/13 06:54:25;;;;;;;1999.90;999.90;;;;;;;9.38;100.00;96620.72;5113082;28;20114;-76
2023/04/13 06:56:50;;;;;;;1999.90;999.90;;;;;;;9.48;100.00;96621.22;5112714;28;20468;-75
2023/04/13 06:59:16;;;;;;;1999.90;999.90;;;;;;;9.58;100.00;96615.44;5112609;28;20080;-79
2023/04/13 07:01:41;;;;;;;1999.90;999.90;;;;;;;9.59;100.00;96622.47;5113015;28;20055;-76
2023/04/13 07:04:06;;;;;;;1999.90;999.90;;;;;;;9.55;100.00;96629.69;5113331;28;20070;-75
2023/04/13 07:06:32;;;;;;;1999.90;999.90;;;;;;;9.47;100.00;96622.31;5113585;28;20031;-75
2023/04/13 07:08:58;;;;;;;1999.90;999.90;;;;;;;9.52;100.00;96627.59;5115411;28;20071;-78
2023/04/13 07:11:25;;;;;;;1999.90;999.90;;;;;;;9.47;100.00;96632.44;5112665;28;20071;-75
2023/04/13 07:13:50;;;;;;;1999.90;999.90;;;;;;;9.53;100.00;96620.22;5112208;28;20023;-75
2023/04/13 07:16:16;;;;;;;1999.90;999.90;;;;;;;9.65;100.00;96634.84;5113641;28;20539;-77
2023/04/13 07:18:41;;;;;;;1999.90;999.90;;;;;;;9.63;100.00;96631.63;5112777;28;20032;-75
2023/04/13 07:21:07;;;;;;;1999.90;999.90;;;;;;;9.62;100.00;96635.47;5112287;28;20054;-78
2023/04/13 07:23:32;;;;;;;1999.90;999.90;;;;;;;9.62;100.00;96637.41;5112632;28;20019;-77
2023/04/13 07:25:58;;;;;;;1999.90;999.90;;;;;;;9.57;100.00;96640.31;5112127;28;20392;-76
2023/04/13 07:28:24;;;;;;;1999.90;999.90;;;;;;;9.50;100.00;96643.50;5112237;28;20028;-80
2023/04/13 07:30:50;;;;;;;1999.90;999.90;;;;;;;9.48;100.00;96632.13;5112321;28;20401;-79
2023/04/13 07:33:15;;;;;;;1999.90;999.90;;;;;;;9.51;100.00;96625.22;5112508;28;20044;-76
2023/04/13 07:35:41;;;;;;;1999.90;999.90;;;;;;;9.50;100.00;96629.88;5113845;28;20020;-76
2023/04/13 07:38:06;;;;;;;1999.90;999.90;;;;;;;9.68;100.00;96636.94;5113147;28;20069;-76
2023/04/13 07:40:32;;;;;;;1999.90;999.90;;;;;;;9.64;100.00;96629.72;5113064;28;20063;-76
2023/04/13 07:42:57;;;;;;;1999.90;999.90;;;;;;;9.68;100.00;96619.72;5113929;28;20027;-75
2023/04/13 07:45:23;;;;;;;1999.90;999.90;;;;;;;9.75;100.00;96627.44;5113721;28;20019;-76
2023/04/13 07:47:48;;;;;;;1999.90;999.90;;;;;;;9.81;100.00;96634.34;5114286;28;20489;-75
2023/04/13 07:50:15;;;;;;;1999.90;999.90;;;;;;;9.84;100.00;96634.50;5113769;28;20096;-75
2023/04/13 07:52:41;;;;;;;1999.90;999.90;;;;;;;9.87;100.00;96631.13;5113632;28;20050;-76
2023/04/13 07:55:07;;;;;;;1999.90;999.90;;;;;;;9.90;100.00;96633.22;5114052;28;20027;-79
2023/04/13 07:57:33;;;;;;;1999.90;999.90;;;;;;;9.83;100.00;96637.56;5120911;28;20084;-78
2023/04/13 07:59:58;;;;;;;1999.90;999.90;;;;;;;9.90;100.00;96644.13;5104006;28;20023;-81
2023/04/13 08:02:24;;;;;;;1999.90;999.90;;;;;;;9.95;100.00;96654.09;5122842;28;20024;-85
2023/04/13 08:04:51;;;;;;;1999.90;999.90;;;;;;;10.03;100.00;96658.75;5103482;28;20018;-84
2023/04/13 08:07:17;;;;;;;1999.90;999.90;;;;;;;9.97;100.00;96651.84;5121625;28;20118;-78
2023/04/13 08:09:42;;;;;;;1999.90;999.90;;;;;;;10.01;100.00;96663.75;5121487;28;20047;-77
2023/04/13 08:12:08;;;;;;;1999.90;999.90;;;;;;;9.92;100.00;96654.75;5120314;28;20040;-83
2023/04/13 08:14:34;;;;;;;1999.90;999.90;;;;;;;9.92;100.00;96660.22;5122664;28;20054;-81
2023/04/13 08:17:00;;;;;;;1999.90;999.90;;;;;;;9.96;100.00;96670.16;5120795;28;20031;-82
2023/04/13 08:19:26;;;;;;;1999.90;999.90;;;;;;;9.87;100.00;96661.16;5113873;28;20034;-80
2023/04/13 08:21:52;;;;;;;1999.90;999.90;;;;;;;9.93;100.00;96673.53;5112415;28;20035;-77
2023/04/13 08:24:19;;;;;;;1999.90;999.90;;;;;;;9.87;100.00;96663.09;5112101;28;20147;-77
2023/04/13 08:26:45;;;;;;;1999.90;999.90;;;;;;;9.77;100.00;96664.25;5112094;28;20020;-80
2023/04/13 08:29:10;;;;;;;1999.90;999.90;;;;;;;9.84;100.00;96661.81;5112250;28;20468;-79
2023/04/13 08:31:36;;;;;;;1999.90;999.90;;;;;;;9.93;100.00;96664.56;5122299;28;20020;-85
2023/04/13 08:34:01;;;;;;;1999.90;999.90;;;;;;;9.96;100.00;96666.66;5118530;28;20023;-84
2023/04/13 08:36:27;;;;;;;1999.90;999.90;;;;;;;9.99;100.00;96680.44;5113482;28;20015;-80
2023/04/13 08:38:52;;;;;;;1999.90;999.90;;;;;;;9.97;100.00;96692.81;5111690;28;20415;-77
2023/04/13 08:41:20;;;;;;;1999.90;999.90;;;;;;;9.93;100.00;96683.69;5093996;28;20024;-81
2023/04/13 08:43:47;;;;;;;1999.90;999.90;;;;;;;9.92;100.00;96682.88;5094172;28;20030;-80
2023/04/13 08:46:19;;;;;;;1999.90;999.90;;;;;;;9.77;100.00;96685.28;5093434;28;20016;-84
2023/04/13 08:48:47;;;;;;;1999.90;999.90;;;;;;;9.79;100.00;96691.22;5112115;28;20115;-79
2023/04/13 08:51:13;;;;;;;1999.90;999.90;;;;;;;9.77;100.00;96688.00;5111498;28;20110;-79
2023/04/13 08:53:39;;;;;;;1999.90;999.90;;;;;;;9.76;100.00;96686.41;5111057;28;20024;-81
2023/04/13 08:56:08;;;;;;;1999.90;999.90;;;;;;;9.81;100.00;96688.97;5111036;28;20050;-80
2023/04/13 08:58:36;;;;;;;1999.90;999.90;;;;;;;9.72;100.00;96701.81;5110855;28;20035;-79
2023/04/13 09:01:04;;;;;;;1999.90;999.90;;;;;;;9.63;100.00;96693.63;5111234;28;20044;-81
2023/04/13 09:03:34;;;;;;;1999.90;999.90;;;;;;;9.60;100.00;96703.25;5111203;28;20028;-78
2023/04/13 09:06:06;;;;;;;1999.90;999.90;;;;;;;9.66;100.00;96699.25;5113802;28;20020;-80
2023/04/13 09:08:34;;;;;;;1999.90;999.90;;;;;;;9.68;100.00;96697.00;5096493;28;20058;-78
2023/04/13 09:11:01;;;;;;;1999.90;999.90;;;;;;;9.66;100.00;96701.97;5114849;28;20033;-80
2023/04/13 09:13:27;;;;;;;1999.90;999.90;;;;;;;9.50;100.00;96689.91;5096650;28;20028;-82
2023/04/13 09:15:53;;;;;;;1999.90;999.90;;;;;;;9.53;100.00;96704.84;5115190;28;20496;-79
2023/04/13 09:18:18;;;;;;;1999.90;999.90;;;;;;;9.52;100.00;96704.03;5115565;28;20023;-81
2023/04/13 09:20:57;;;;;;;1999.90;999.90;;;;;;;9.47;100.00;96701.47;5114878;28;20036;-83
2023/04/13 09:23:23;;;;;;;1999.90;999.90;;;;;;;9.37;100.00;96704.50;5114947;28;20053;-83
2023/04/13 09:25:49;;;;;;;1999.90;999.90;;;;;;;9.41;100.00;96705.47;5114889;28;20031;-84
2023/04/13 09:28:18;;;;;;;1999.90;999.90;;;;;;;9.48;100.00;96708.53;5115130;28;20016;-79
2023/04/13 09:30:45;;;;;;;1999.90;999.90;;;;;;;9.61;100.00;96723.97;5115050;28;20020;-80
2023/04/13 09:33:14;;;;;;;1999.90;999.90;;;;;;;9.49;100.00;96715.59;5115327;28;20059;-89
2023/04/13 09:35:40;;;;;;;1999.90;999.90;;;;;;;9.49;100.00;96718.31;5116445;28;20475;-83
2023/04/13 09:38:07;;;;;;;1999.90;999.90;;;;;;;9.41;100.00;96713.66;5118208;28;20035;-87
2023/04/13 09:40:36;;;;;;;1999.90;999.90;;;;;;;9.35;100.00;96720.41;5117719;28;20023;-87
2023/04/13 09:43:04;;;;;;;1999.90;999.90;;;;;;;9.31;100.00;96719.41;5118529;28;20430;-87
2023/04/13 09:45:37;;;;;;;1999.90;999.90;;;;;;;9.37;100.00;96712.69;5122319;28;20627;-84
2023/04/13 09:48:03;;;;;;;1999.90;999.90;;;;;;;9.31;100.00;96705.78;5119874;28;20031;-87
2023/04/13 09:50:32;;;;;;;1999.90;999.90;;;;;;;9.24;100.00;96696.47;5120351;28;20020;-86
2023/04/13 09:53:05;;;;;;;1999.90;999.90;;;;;;;9.11;100.00;96695.47;5118983;28;20032;-85
2023/04/13 09:55:32;;;;;;;1999.90;999.90;;;;;;;8.94;100.00;96689.94;5100328;28;20046;-86
2023/04/13 09:58:12;;;;;;;1999.90;999.90;;;;;;;9.09;100.00;96700.41;5117471;28;20027;-82
2023/04/13 10:00:39;;;;;;;1999.90;999.90;;;;;;;8.96;100.00;96699.41;5117529;28;20023;-84
2023/04/13 10:03:09;;;;;;;1999.90;999.90;;;;;;;8.94;100.00;96703.56;5097648;28;20442;-84
2023/04/13 10:05:37;;;;;;;1999.90;999.90;;;;;;;9.01;100.00;96710.19;5120925;28;20509;-87
2023/04/13 10:08:03;;;;;;;1999.90;999.90;;;;;;;8.67;100.00;96698.34;5099206;28;20030;-83
2023/04/13 10:10:29;;;;;;;1999.90;999.90;;;;;;;8.64;100.00;96688.06;5100249;28;20039;-86
2023/04/13 10:12:57;;;;;;;1999.90;999.90;;;;;;;8.61;100.00;96690.28;5116763;28;20023;-85
2023/04/13 10:15:35;;;;;;;1999.90;999.90;;;;;;;8.70;100.00;96684.09;5117547;28;20029;-85
2023/04/13 10:18:26;;;;;;;1999.90;999.90;;;;;;;8.80;100.00;96697.44;5116610;28;20062;-86
2023/04/13 10:20:53;;;;;;;1999.90;999.90;;;;;;;8.85;100.00;96689.13;5121954;28;20031;-86
2023/04/13 10:23:20;;;;;;;1999.90;999.90;;;;;;;8.88;100.00;96691.22;5121444;28;20027;-87
2023/04/13 10:25:53;;;;;;;1999.90;999.90;;;;;;;8.77;100.00;96687.94;5120150;28;20027;-86
2023/04/13 10:28:23;;;;;;;1999.90;999.90;;;;;;;8.72;100.00;96684.56;5097731;28;20019;-85
2023/04/13 10:30:53;;;;;;;1999.90;999.90;;;;;;;8.72;100.00;96682.66;5117293;28;20027;-85
2023/04/13 10:33:19;;;;;;;1999.90;999.90;;;;;;;8.58;100.00;96663.66;5118677;28;20008;-90
2023/04/13 10:35:56;;;;;;;1999.90;999.90;;;;;;;8.74;100.00;96674.16;5083336;28;20507;-84
2023/04/13 10:38:22;;;;;;;1999.90;999.90;;;;;;;8.60;100.00;96674.25;5116971;28;20027;-86
2023/04/13 10:40:48;;;;;;;1999.90;999.90;;;;;;;8.66;100.00;96674.91;5116661;28;20476;-82
2023/04/13 10:43:28;;;;;;;1999.90;999.90;;;;;;;8.49;100.00;96676.44;5119929;28;20039;-83
2023/04/13 10:46:12;;;;;;;1999.90;999.90;;;;;;;8.33;100.00;96675.25;5124292;28;20037;-86
2023/04/13 10:48:40;;;;;;;1999.90;999.90;;;;;;;8.21;100.00;96669.53;5120643;28;20036;-86
2023/04/13 10:51:05;;;;;;;1999.90;999.90;;;;;;;8.25;100.00;96680.63;5121824;28;20024;-89
2023/04/13 10:53:32;;;;;;;1999.90;999.90;;;;;;;8.26;100.00;96674.88;5121743;28;20045;-86
2023/04/13 10:55:57;;;;;;;1999.90;999.90;;;;;;;8.21;100.00;96664.09;5122897;28;20023;-84